^^
Station Historical Data
Daily Summary for January 16, 2018 Units:  Both    English   Metric
« Previous Day
Next Day »
Daily Weekly Monthly Yearly Custom
  High: Low: Average:
Temperature: TemperatureC °F /  -17.8 °C -8.4 °F /  -22.4 °C -6.6 °F /  -21.4 °C
Dew Point: DewpointC °F /  -17.8 °C -10.4 °F /  -23.6 °C -9.4 °F /  -23 °C
Humidity: Humidity% 72% 80%
Wind Speed: WindSpeedKMHmph /  0km/h - 7.1mph /  11.4km/h
Wind Gust: WindSpeedGustKMHmph /  0km/h - -
Wind- - SE
Pressure: PressurehPa in /  0 hPa 1002.3 in /  33937.9 hPa -
Precipitation: 0.0 in /  0 mm    
Historical Graphs
 
 
Tabular Data for January 16, 2018
Time Temperature Dew Point Pressure Wind Wind Speed Wind Gust Humidity Rainfall Rate (Hourly) solar Conditions
TemperatureC °F /  -17.8 °C DewpointC °F /  -17.8 °C PressurehPain /  0hPa Calm     Humidity% HourlyPrecipMMin /  0mm SoftwareType W/m2 Conditions
00:03 -7.5 °F /  -21.9 °C -9.3 °F /  -22.9 °C 1018.2in /  34476.3hPa South 1.8mph /  2.9km/h 6.4mph /  10.3km/h 87% 0.0in /  0mm WeatherDisplay:10.37 W/m2 FEW
00:08 -7.5 °F /  -21.9 °C -9.3 °F /  -22.9 °C 1017.8in /  34462.7hPa West 3.4mph /  5.5km/h 13.0mph /  20.9km/h 87% 0.0in /  0mm WeatherDisplay:10.37 W/m2 FEW
00:17 -7.4 °F /  -21.9 °C -9.2 °F /  -22.9 °C 1017.8in /  34462.7hPa SSE 3.9mph /  6.3km/h 7.4mph /  11.9km/h 87% 0.0in /  0mm WeatherDisplay:10.37 W/m2 FEW
00:22 -7.4 °F /  -21.9 °C -9.4 °F /  -23 °C 1017.8in /  34462.7hPa South 5.1mph /  8.2km/h 14.8mph /  23.8km/h 86% 0.0in /  0mm WeatherDisplay:10.37 W/m2 FEW
00:33 -7.4 °F /  -21.9 °C -9.4 °F /  -23 °C 1017.5in /  34452.6hPa SW 8.4mph /  13.5km/h 9.3mph /  15km/h 86% 0.0in /  0mm WeatherDisplay:10.37 W/m2 FEW
00:40 -7.4 °F /  -21.9 °C -9.2 °F /  -22.9 °C 1017.5in /  34452.6hPa SSE 2.1mph /  3.4km/h 18.5mph /  29.8km/h 87% 0.0in /  0mm WeatherDisplay:10.37 W/m2 FEW
00:45 -7.3 °F /  -21.8 °C -9.3 °F /  -22.9 °C 1017.5in /  34452.6hPa SSW 2.3mph /  3.7km/h 14.8mph /  23.8km/h 86% 0.0in /  0mm WeatherDisplay:10.37 W/m2 FEW
00:58 -7.3 °F /  -21.8 °C -9.3 °F /  -22.9 °C 1017.2in /  34442.4hPa East 2.7mph /  4.3km/h 9.3mph /  15km/h 86% 0.0in /  0mm WeatherDisplay:10.37 W/m2 FEW
01:07 -7.3 °F /  -21.8 °C -9.3 °F /  -22.9 °C 1017.2in /  34442.4hPa SSE 5.0mph /  8km/h 16.7mph /  26.9km/h 86% 0.0in /  0mm WeatherDisplay:10.37 W/m2 FEW
01:12 -7.3 °F /  -21.8 °C -9.3 °F /  -22.9 °C 1017.2in /  34442.4hPa SSE 6.3mph /  10.1km/h 13.0mph /  20.9km/h 86% 0.0in /  0mm WeatherDisplay:10.37 W/m2 FEW
01:17 -7.3 °F /  -21.8 °C -9.3 °F /  -22.9 °C 1017.2in /  34442.4hPa ESE 0.6mph /  1km/h 3.2mph /  5.1km/h 86% 0.0in /  0mm WeatherDisplay:10.37 W/m2 FEW
01:22 -7.3 °F /  -21.8 °C -9.3 °F /  -22.9 °C 1016.8in /  34428.8hPa SSE 9.2mph /  14.8km/h 22.2mph /  35.7km/h 86% 0.0in /  0mm WeatherDisplay:10.37 W/m2 FEW
01:27 -7.4 °F /  -21.9 °C -9.3 °F /  -22.9 °C 1016.8in /  34428.8hPa SE 8.0mph /  12.9km/h 18.5mph /  29.8km/h 86% 0.0in /  0mm WeatherDisplay:10.37 W/m2 FEW
01:32 -7.4 °F /  -21.9 °C -9.6 °F /  -23.1 °C 1016.8in /  34428.8hPa NE 4.2mph /  6.8km/h 4.8mph /  7.7km/h 85% 0.0in /  0mm WeatherDisplay:10.37 W/m2 FEW
01:43 -7.4 °F /  -21.9 °C -9.4 °F /  -23 °C 1016.5in /  34418.7hPa ESE 1.6mph /  2.6km/h 9.7mph /  15.6km/h 86% 0.0in /  0mm WeatherDisplay:10.37 W/m2 FEW
01:48 -7.4 °F /  -21.9 °C -9.4 °F /  -23 °C 1016.5in /  34418.7hPa SE 0.3mph /  0.5km/h 9.3mph /  15km/h 86% 0.0in /  0mm WeatherDisplay:10.37 W/m2 FEW
01:58 -7.5 °F /  -21.9 °C -9.6 °F /  -23.1 °C 1016.1in /  34405.1hPa ENE 7.9mph /  12.7km/h 18.5mph /  29.8km/h 85% 0.0in /  0mm WeatherDisplay:10.37 W/m2 FEW
02:05 -7.4 °F /  -21.9 °C -9.6 °F /  -23.1 °C 1016.1in /  34405.1hPa West 0.5mph /  0.8km/h 5.6mph /  9km/h 85% 0.0in /  0mm WeatherDisplay:10.37 W/m2 FEW
02:13 -7.4 °F /  -21.9 °C -9.6 °F /  -23.1 °C 1016.1in /  34405.1hPa ESE 5.0mph /  8km/h 5.6mph /  9km/h 85% 0.0in /  0mm WeatherDisplay:10.37 W/m2 FEW
02:21 -7.4 °F /  -21.9 °C -9.6 °F /  -23.1 °C 1015.8in /  34395hPa SSE 10.8mph /  17.4km/h 18.5mph /  29.8km/h 85% 0.0in /  0mm WeatherDisplay:10.37 W/m2 FEW
02:26 -7.4 °F /  -21.9 °C -9.6 °F /  -23.1 °C 1015.8in /  34395hPa SSE 11.1mph /  17.9km/h 22.2mph /  35.7km/h 85% 0.0in /  0mm WeatherDisplay:10.37 W/m2 FEW
02:38 -7.3 °F /  -21.8 °C -9.4 °F /  -23 °C 1015.8in /  34395hPa SSE 1.9mph /  3.1km/h 9.3mph /  15km/h 85% 0.0in /  0mm WeatherDisplay:10.37 W/m2 FEW
02:43 -7.3 °F /  -21.8 °C -9.4 °F /  -23 °C 1015.8in /  34395hPa South 2.3mph /  3.7km/h 14.8mph /  23.8km/h 85% 0.0in /  0mm WeatherDisplay:10.37 W/m2 FEW
02:48 -7.3 °F /  -21.8 °C -9.3 °F /  -22.9 °C 1015.8in /  34395hPa SSE 2.1mph /  3.4km/h 16.7mph /  26.9km/h 86% 0.0in /  0mm WeatherDisplay:10.37 W/m2 FEW
02:53 -7.3 °F /  -21.8 °C -9.3 °F /  -22.9 °C 1015.8in /  34395hPa SE 0.5mph /  0.8km/h 5.6mph /  9km/h 86% 0.0in /  0mm WeatherDisplay:10.37 W/m2 FEW
02:58 -7.3 °F /  -21.8 °C -9.3 °F /  -22.9 °C 1015.8in /  34395hPa SSW 4.0mph /  6.4km/h 5.6mph /  9km/h 86% 0.0in /  0mm WeatherDisplay:10.37 W/m2 FEW
03:03 -7.3 °F /  -21.8 °C -9.4 °F /  -23 °C 1015.5in /  34384.8hPa SE 8.8mph /  14.2km/h 17.7mph /  28.5km/h 85% 0.0in /  0mm WeatherDisplay:10.37 W/m2 FEW
03:20 -7.4 °F /  -21.9 °C -9.5 °F /  -23.1 °C 1015.5in /  34384.8hPa SE 1.6mph /  2.6km/h 14.8mph /  23.8km/h 85% 0.0in /  0mm WeatherDisplay:10.37 W/m2 FEW
03:25 -7.4 °F /  -21.9 °C -9.3 °F /  -22.9 °C 1015.1in /  34371.3hPa SSE 2.4mph /  3.9km/h 7.4mph /  11.9km/h 86% 0.0in /  0mm WeatherDisplay:10.37 W/m2 FEW
03:30 -7.4 °F /  -21.9 °C -9.4 °F /  -23 °C 1015.1in /  34371.3hPa SE 9.8mph /  15.8km/h 14.8mph /  23.8km/h 86% 0.0in /  0mm WeatherDisplay:10.37 W/m2 FEW
03:35 -7.4 °F /  -21.9 °C -9.4 °F /  -23 °C 1015.1in /  34371.3hPa East 5.6mph /  9km/h 13.0mph /  20.9km/h 86% 0.0in /  0mm WeatherDisplay:10.37 W/m2 FEW
03:40 -7.4 °F /  -21.9 °C -9.4 °F /  -23 °C 1014.8in /  34361.1hPa SSW 3.9mph /  6.3km/h 11.1mph /  17.9km/h 86% 0.0in /  0mm WeatherDisplay:10.37 W/m2 FEW
03:45 -7.4 °F /  -21.9 °C -9.6 °F /  -23.1 °C 1014.8in /  34361.1hPa South 3.9mph /  6.3km/h 13.0mph /  20.9km/h 85% 0.0in /  0mm WeatherDisplay:10.37 W/m2 FEW
03:50 -7.5 °F /  -21.9 °C -9.6 °F /  -23.1 °C 1014.8in /  34361.1hPa SSE 0.3mph /  0.5km/h 5.6mph /  9km/h 85% 0.0in /  0mm WeatherDisplay:10.37 W/m2 FEW
03:58 -7.6 °F /  -22 °C -9.7 °F /  -23.2 °C 1014.4in /  34347.6hPa South 6.4mph /  10.3km/h 18.5mph /  29.8km/h 85% 0.0in /  0mm WeatherDisplay:10.37 W/m2 FEW
04:10 -7.6 °F /  -22 °C -9.7 °F /  -23.2 °C 1014.4in /  34347.6hPa SE 7.1mph /  11.4km/h 18.5mph /  29.8km/h 85% 0.0in /  0mm WeatherDisplay:10.37 W/m2 FEW
04:22 -7.7 °F /  -22.1 °C -9.8 °F /  -23.2 °C 1014.4in /  34347.6hPa SE 6.1mph /  9.8km/h 16.7mph /  26.9km/h 85% 0.0in /  0mm WeatherDisplay:10.37 W/m2 FEW
04:35 -7.8 °F /  -22.1 °C -9.7 °F /  -23.2 °C 1014.1in /  34337.4hPa ESE 4.7mph /  7.6km/h 5.6mph /  9km/h 86% 0.0in /  0mm WeatherDisplay:10.37 W/m2 FEW
04:43 -7.8 °F /  -22.1 °C -9.9 °F /  -23.3 °C 1013.8in /  34327.3hPa South 2.9mph /  4.7km/h 18.5mph /  29.8km/h 85% 0.0in /  0mm WeatherDisplay:10.37 W/m2 FEW
04:53 -7.9 °F /  -22.2 °C -10.0 °F /  -23.3 °C 1013.8in /  34327.3hPa SSE 6.6mph /  10.6km/h 18.5mph /  29.8km/h 85% 0.0in /  0mm WeatherDisplay:10.37 W/m2 FEW
04:58 -7.9 °F /  -22.2 °C -9.9 °F /  -23.3 °C 1013.8in /  34327.3hPa South 2.6mph /  4.2km/h 13.0mph /  20.9km/h 86% 0.0in /  0mm WeatherDisplay:10.37 W/m2 FEW
05:03 -8.0 °F /  -22.2 °C -9.9 °F /  -23.3 °C 1013.4in /  34313.7hPa SSE 2.3mph /  3.7km/h 11.1mph /  17.9km/h 86% 0.0in /  0mm WeatherDisplay:10.37 W/m2 FEW
05:09 -8.0 °F /  -22.2 °C -9.9 °F /  -23.3 °C 1013.4in /  34313.7hPa South 9.2mph /  14.8km/h 18.5mph /  29.8km/h 86% 0.0in /  0mm WeatherDisplay:10.37 W/m2 FEW
05:18 -8.1 °F /  -22.3 °C -10.0 °F /  -23.3 °C 1013.4in /  34313.7hPa East 9.8mph /  15.8km/h 18.5mph /  29.8km/h 86% 0.0in /  0mm WeatherDisplay:10.37 W/m2 FEW
05:27 -8.1 °F /  -22.3 °C -10.1 °F /  -23.4 °C 1013.1in /  34303.6hPa SE 1.1mph /  1.8km/h 8.0mph /  12.9km/h 86% 0.0in /  0mm WeatherDisplay:10.37 W/m2 FEW
05:38 -8.1 °F /  -22.3 °C -10.1 °F /  -23.4 °C 1012.8in /  34293.4hPa South 6.1mph /  9.8km/h 16.1mph /  25.9km/h 86% 0.0in /  0mm WeatherDisplay:10.37 W/m2 FEW
05:45 -8.2 °F /  -22.3 °C -10.1 °F /  -23.4 °C 1012.8in /  34293.4hPa SSW 1.0mph /  1.6km/h 11.1mph /  17.9km/h 86% 0.0in /  0mm WeatherDisplay:10.37 W/m2 FEW
05:50 -8.2 °F /  -22.3 °C -9.9 °F /  -23.3 °C 1012.8in /  34293.4hPa SSE 1.3mph /  2.1km/h 5.6mph /  9km/h 87% 0.0in /  0mm WeatherDisplay:10.37 W/m2 FEW
05:57 -8.2 °F /  -22.3 °C -9.9 °F /  -23.3 °C 1012.8in /  34293.4hPa ENE 6.9mph /  11.1km/h 13.0mph /  20.9km/h 87% 0.0in /  0mm WeatherDisplay:10.37 W/m2 FEW
06:02 -8.2 °F /  -22.3 °C -9.9 °F /  -23.3 °C 1012.4in /  34279.9hPa ESE 5.1mph /  8.2km/h 6.4mph /  10.3km/h 87% 0.0in /  0mm WeatherDisplay:10.37 W/m2 FEW
06:11 -8.2 °F /  -22.3 °C -10.0 °F /  -23.3 °C 1012.4in /  34279.9hPa ENE 5.0mph /  8km/h 9.3mph /  15km/h 87% 0.0in /  0mm WeatherDisplay:10.37 W/m2 FEW
06:16 -8.2 °F /  -22.3 °C -10.0 °F /  -23.3 °C 1012.4in /  34279.9hPa ENE 7.4mph /  11.9km/h 13.0mph /  20.9km/h 87% 0.0in /  0mm WeatherDisplay:10.37 W/m2 FEW
06:21 -8.3 °F /  -22.4 °C -10.1 °F /  -23.4 °C 1012.4in /  34279.9hPa ESE 8.0mph /  12.9km/h 19.3mph /  31.1km/h 87% 0.0in /  0mm WeatherDisplay:10.37 W/m2 FEW
06:26 -8.3 °F /  -22.4 °C -10.1 °F /  -23.4 °C 1012.4in /  34279.9hPa SSE 8.0mph /  12.9km/h 14.8mph /  23.8km/h 87% 0.0in /  0mm WeatherDisplay:10.37 W/m2 FEW
06:31 -8.3 °F /  -22.4 °C -10.1 °F /  -23.4 °C 1012.4in /  34279.9hPa SSE 2.3mph /  3.7km/h 13.0mph /  20.9km/h 87% 0.0in /  0mm WeatherDisplay:10.37 W/m2 FEW
06:36 -8.3 °F /  -22.4 °C -10.1 °F /  -23.4 °C 1012.1in /  34269.7hPa ESE 4.2mph /  6.8km/h 11.1mph /  17.9km/h 87% 0.0in /  0mm WeatherDisplay:10.37 W/m2 FEW
06:47 -8.3 °F /  -22.4 °C -10.1 °F /  -23.4 °C 1012.1in /  34269.7hPa Calm     87% 0.0in /  0mm WeatherDisplay:10.37 W/m2 FEW
07:08 -8.3 °F /  -22.4 °C -10.3 °F /  -23.5 °C 1011.7in /  34256.2hPa SSE 10.1mph /  16.3km/h 16.7mph /  26.9km/h 86% 0.0in /  0mm WeatherDisplay:10.37 W/m2 FEW
07:13 -8.4 °F /  -22.4 °C -10.3 °F /  -23.5 °C 1011.7in /  34256.2hPa SSE 6.4mph /  10.3km/h 14.8mph /  23.8km/h 86% 0.0in /  0mm WeatherDisplay:10.37 W/m2 FEW
07:18 -8.4 °F /  -22.4 °C -10.3 °F /  -23.5 °C 1011.4in /  34246hPa SE 12.1mph /  19.5km/h 24.1mph /  38.8km/h 86% 0.0in /  0mm WeatherDisplay:10.37 W/m2 FEW
07:23 -8.4 °F /  -22.4 °C -10.4 °F /  -23.6 °C 1011.4in /  34246hPa ESE 2.1mph /  3.4km/h 11.1mph /  17.9km/h 85% 0.0in /  0mm WeatherDisplay:10.37 W/m2 FEW
07:29 -8.4 °F /  -22.4 °C -10.4 °F /  -23.6 °C 1011.4in /  34246hPa SSE 12.4mph /  20km/h 24.1mph /  38.8km/h 85% 0.0in /  0mm WeatherDisplay:10.37 W/m2 FEW
07:37 -8.4 °F /  -22.4 °C -10.4 °F /  -23.6 °C 1011.4in /  34246hPa Calm     85% 0.0in /  0mm WeatherDisplay:10.37 W/m2 FEW
07:45 -8.4 °F /  -22.4 °C -10.3 °F /  -23.5 °C 1011.1in /  34235.8hPa SSW 3.7mph /  6km/h 9.3mph /  15km/h 86% 0.0in /  0mm WeatherDisplay:10.37 W/m2 FEW
07:50 -8.4 °F /  -22.4 °C -10.3 °F /  -23.5 °C 1011.1in /  34235.8hPa South 5.5mph /  8.9km/h 31.5mph /  50.7km/h 86% 0.0in /  0mm WeatherDisplay:10.37 W/m2 FEW
07:55 -8.4 °F /  -22.4 °C -10.3 °F /  -23.5 °C 1011.1in /  34235.8hPa SSE 6.8mph /  10.9km/h 18.5mph /  29.8km/h 86% 0.0in /  0mm WeatherDisplay:10.37 W/m2 FEW
08:02 -8.3 °F /  -22.4 °C -10.3 °F /  -23.5 °C 1011.1in /  34235.8hPa SSE 5.5mph /  8.9km/h 13.0mph /  20.9km/h 86% 0.0in /  0mm WeatherDisplay:10.37 W/m2 FEW
08:07 -8.4 °F /  -22.4 °C -10.3 °F /  -23.5 °C 1011.1in /  34235.8hPa SSE 1.8mph /  2.9km/h 7.4mph /  11.9km/h 86% 0.0in /  0mm WeatherDisplay:10.37 W/m2 FEW
08:13 -8.3 °F /  -22.4 °C -10.3 °F /  -23.5 °C 1011.1in /  34235.8hPa SSE 6.1mph /  9.8km/h 14.8mph /  23.8km/h 86% 0.0in /  0mm WeatherDisplay:10.37 W/m2 FEW
08:20 -8.3 °F /  -22.4 °C -10.3 °F /  -23.5 °C 1011.1in /  34235.8hPa South 5.0mph /  8km/h 11.1mph /  17.9km/h 86% 0.0in /  0mm WeatherDisplay:10.37 W/m2 FEW
08:34 -8.3 °F /  -22.4 °C -10.1 °F /  -23.4 °C 1010.7in /  34222.3hPa ESE 1.8mph /  2.9km/h 13.0mph /  20.9km/h 87% 0.0in /  0mm WeatherDisplay:10.37 W/m2 FEW
08:43 -8.2 °F /  -22.3 °C -10.0 °F /  -23.3 °C 1010.4in /  34212.1hPa ENE 6.9mph /  11.1km/h 11.1mph /  17.9km/h 87% 0.0in /  0mm WeatherDisplay:10.37 W/m2 FEW
08:50 -8.2 °F /  -22.3 °C -9.9 °F /  -23.3 °C 1010.4in /  34212.1hPa South 7.9mph /  12.7km/h 16.7mph /  26.9km/h 87% 0.0in /  0mm WeatherDisplay:10.37 W/m2 FEW
08:56 -8.1 °F /  -22.3 °C -9.9 °F /  -23.3 °C 1010.7in /  34222.3hPa East 0.8mph /  1.3km/h 6.4mph /  10.3km/h 87% 0.0in /  0mm WeatherDisplay:10.37 W/m2 FEW
09:01 -8.1 °F /  -22.3 °C -9.8 °F /  -23.2 °C 1010.4in /  34212.1hPa SSE 2.1mph /  3.4km/h 4.8mph /  7.7km/h 87% 0.0in /  0mm WeatherDisplay:10.37 W/m2 FEW
09:08 -7.9 °F /  -22.2 °C -9.7 °F /  -23.2 °C 1010.4in /  34212.1hPa ESE 5.0mph /  8km/h 14.8mph /  23.8km/h 87% 0.0in /  0mm WeatherDisplay:10.37 W/m2 FEW
09:21 -7.7 °F /  -22.1 °C -9.3 °F /  -22.9 °C 1010.0in /  34198.6hPa SE 7.1mph /  11.4km/h 20.4mph /  32.8km/h 88% 0.0in /  0mm WeatherDisplay:10.37 W/m2 FEW
09:33 -7.5 °F /  -21.9 °C -9.2 °F /  -22.9 °C 1010.0in /  34198.6hPa SSE 5.6mph /  9km/h 18.5mph /  29.8km/h 88% 0.0in /  0mm WeatherDisplay:10.37 W/m2 FEW
09:40 -7.4 °F /  -21.9 °C -9.1 °F /  -22.8 °C 1010.0in /  34198.6hPa SE 3.2mph /  5.1km/h 7.4mph /  11.9km/h 88% 0.0in /  0mm WeatherDisplay:10.37 W/m2 FEW
09:47 -7.3 °F /  -21.8 °C -9.0 °F /  -22.8 °C 1010.0in /  34198.6hPa SE 5.0mph /  8km/h 14.5mph /  23.3km/h 88% 0.0in /  0mm WeatherDisplay:10.37 W/m2 FEW
09:52 -7.3 °F /  -21.8 °C -8.9 °F /  -22.7 °C 1010.0in /  34198.6hPa SSE 8.4mph /  13.5km/h 20.4mph /  32.8km/h 88% 0.0in /  0mm WeatherDisplay:10.37 W/m2 FEW
10:02 -7.2 °F /  -21.8 °C -8.7 °F /  -22.6 °C 1010.0in /  34198.6hPa South 5.0mph /  8km/h 14.8mph /  23.8km/h 89% 0.0in /  0mm WeatherDisplay:10.37 W/m2 FEW
10:07 -7.1 °F /  -21.7 °C -8.8 °F /  -22.7 °C 1010.0in /  34198.6hPa SSE 8.2mph /  13.2km/h 14.8mph /  23.8km/h 88% 0.0in /  0mm WeatherDisplay:10.37 W/m2 FEW
10:12 -7.1 °F /  -21.7 °C -8.8 °F /  -22.7 °C 1010.0in /  34198.6hPa ESE 5.6mph /  9km/h 16.7mph /  26.9km/h 88% 0.0in /  0mm WeatherDisplay:10.37 W/m2 FEW
10:17 -7.2 °F /  -21.8 °C -8.8 °F /  -22.7 °C 1010.0in /  34198.6hPa SE 4.8mph /  7.7km/h 16.1mph /  25.9km/h 88% 0.0in /  0mm WeatherDisplay:10.37 W/m2 FEW
10:30 -7.3 °F /  -21.8 °C -9.1 °F /  -22.8 °C 1010.0in /  34198.6hPa SE 7.2mph /  11.6km/h 18.5mph /  29.8km/h 87% 0.0in /  0mm WeatherDisplay:10.37 W/m2 FEW
10:35 -7.3 °F /  -21.8 °C -9.1 °F /  -22.8 °C 1010.0in /  34198.6hPa WNW 6.9mph /  11.1km/h 18.5mph /  29.8km/h 87% 0.0in /  0mm WeatherDisplay:10.37 W/m2 FEW
10:51 -7.4 °F /  -21.9 °C -9.2 °F /  -22.9 °C 1009.7in /  34188.4hPa SSE 5.3mph /  8.5km/h 11.1mph /  17.9km/h 87% 0.0in /  0mm WeatherDisplay:10.37 W/m2 FEW
11:04 -7.4 °F /  -21.9 °C -9.2 °F /  -22.9 °C 1009.7in /  34188.4hPa SSW 0.5mph /  0.8km/h 7.4mph /  11.9km/h 87% 0.0in /  0mm WeatherDisplay:10.37 W/m2 FEW
11:19 -7.2 °F /  -21.8 °C -9.0 °F /  -22.8 °C 1009.7in /  34188.4hPa South 5.0mph /  8km/h 6.4mph /  10.3km/h 87% 0.0in /  0mm WeatherDisplay:10.37 W/m2 FEW
11:24 -7.2 °F /  -21.8 °C -8.8 °F /  -22.7 °C 1009.7in /  34188.4hPa ESE 5.1mph /  8.2km/h 14.8mph /  23.8km/h 88% 0.0in /  0mm WeatherDisplay:10.37 W/m2 FEW
11:37 -7.2 °F /  -21.8 °C -9.0 °F /  -22.8 °C 1009.4in /  34178.3hPa SSE 5.1mph /  8.2km/h 13.0mph /  20.9km/h 87% 0.0in /  0mm WeatherDisplay:10.37 W/m2 FEW
11:42 -7.2 °F /  -21.8 °C -9.0 °F /  -22.8 °C 1009.4in /  34178.3hPa SSW 8.4mph /  13.5km/h 9.3mph /  15km/h 87% 0.0in /  0mm WeatherDisplay:10.37 W/m2 FEW
11:52 -7.2 °F /  -21.8 °C -9.2 °F /  -22.9 °C 1009.0in /  34164.7hPa ESE 12.2mph /  19.6km/h 22.2mph /  35.7km/h 86% 0.0in /  0mm WeatherDisplay:10.37 W/m2 FEW
12:01 -7.3 °F /  -21.8 °C -9.5 °F /  -23.1 °C 1009.0in /  34164.7hPa SE 9.8mph /  15.8km/h 14.8mph /  23.8km/h 84% 0.0in /  0mm WeatherDisplay:10.37 W/m2 FEW
12:06 -7.3 °F /  -21.8 °C -9.7 °F /  -23.2 °C 1009.0in /  34164.7hPa SSE 8.4mph /  13.5km/h 14.8mph /  23.8km/h 83% 0.0in /  0mm WeatherDisplay:10.37 W/m2 FEW
12:11 -7.3 °F /  -21.8 °C -9.7 °F /  -23.2 °C 1008.7in /  34154.6hPa West 10.8mph /  17.4km/h 16.7mph /  26.9km/h 83% 0.0in /  0mm WeatherDisplay:10.37 W/m2 FEW
12:16 -7.3 °F /  -21.8 °C -9.8 °F /  -23.2 °C 1008.7in /  34154.6hPa SE 6.4mph /  10.3km/h 18.5mph /  29.8km/h 82% 0.0in /  0mm WeatherDisplay:10.37 W/m2 FEW
12:21 -7.2 °F /  -21.8 °C -9.8 °F /  -23.2 °C 1008.7in /  34154.6hPa South 15.3mph /  24.6km/h 18.5mph /  29.8km/h 82% 0.0in /  0mm WeatherDisplay:10.37 W/m2 FEW
12:30 -7.1 °F /  -21.7 °C -9.8 °F /  -23.2 °C 1008.4in /  34144.4hPa East 13.5mph /  21.7km/h 24.1mph /  38.8km/h 81% 0.0in /  0mm WeatherDisplay:10.37 W/m2 FEW
12:43 -6.8 °F /  -21.6 °C -9.6 °F /  -23.1 °C 1008.4in /  34144.4hPa SSE 9.7mph /  15.6km/h 18.5mph /  29.8km/h 81% 0.0in /  0mm WeatherDisplay:10.37 W/m2 FEW
12:48 -6.8 °F /  -21.6 °C -9.5 °F /  -23.1 °C 1008.0in /  34130.9hPa ESE 6.0mph /  9.7km/h 9.3mph /  15km/h 81% 0.0in /  0mm WeatherDisplay:10.37 W/m2 FEW
12:53 -6.7 °F /  -21.5 °C -9.4 °F /  -23 °C 1008.0in /  34130.9hPa West 6.8mph /  10.9km/h 31.5mph /  50.7km/h 81% 0.0in /  0mm WeatherDisplay:10.37 W/m2 FEW
12:58 -6.7 °F /  -21.5 °C -9.4 °F /  -23 °C 1007.7in /  34120.7hPa South 9.8mph /  15.8km/h 18.5mph /  29.8km/h 81% 0.0in /  0mm WeatherDisplay:10.37 W/m2 FEW
13:07 -6.6 °F /  -21.4 °C -9.4 °F /  -23 °C 1007.7in /  34120.7hPa SE 10.8mph /  17.4km/h 20.9mph /  33.6km/h 80% 0.0in /  0mm WeatherDisplay:10.37 W/m2 FEW
13:15 -6.4 °F /  -21.3 °C -9.3 °F /  -22.9 °C 1007.3in /  34107.2hPa SE 9.5mph /  15.3km/h 16.7mph /  26.9km/h 80% 0.0in /  0mm WeatherDisplay:10.37 W/m2 FEW
13:20 -6.4 °F /  -21.3 °C -9.3 °F /  -22.9 °C 1007.3in /  34107.2hPa ESE 9.7mph /  15.6km/h 29.6mph /  47.6km/h 80% 0.0in /  0mm WeatherDisplay:10.37 W/m2 FEW
13:25 -6.3 °F /  -21.3 °C -9.2 °F /  -22.9 °C 1007.3in /  34107.2hPa SE 5.1mph /  8.2km/h 17.7mph /  28.5km/h 80% 0.0in /  0mm WeatherDisplay:10.37 W/m2 FEW
13:32 -6.2 °F /  -21.2 °C -9.1 °F /  -22.8 °C 1007.0in /  34097hPa SE 10.1mph /  16.3km/h 24.1mph /  38.8km/h 80% 0.0in /  0mm WeatherDisplay:10.37 W/m2 FEW
13:37 -6.2 °F /  -21.2 °C -9.1 °F /  -22.8 °C 1007.0in /  34097hPa SSE 5.3mph /  8.5km/h 11.1mph /  17.9km/h 80% 0.0in /  0mm WeatherDisplay:10.37 W/m2 FEW
13:47 -5.9 °F /  -21.1 °C -9.0 °F /  -22.8 °C 1007.0in /  34097hPa SE 10.8mph /  17.4km/h 22.2mph /  35.7km/h 79% 0.0in /  0mm WeatherDisplay:10.37 W/m2 FEW
14:00 -5.8 °F /  -21 °C -9.2 °F /  -22.9 °C 1006.7in /  34086.9hPa SE 9.5mph /  15.3km/h 20.4mph /  32.8km/h 77% 0.0in /  0mm WeatherDisplay:10.37 W/m2 FEW
14:10 -5.7 °F /  -20.9 °C -9.1 °F /  -22.8 °C 1006.7in /  34086.9hPa SE 11.4mph /  18.3km/h 24.1mph /  38.8km/h 77% 0.0in /  0mm WeatherDisplay:10.37 W/m2 FEW
14:15 -5.7 °F /  -20.9 °C -9.1 °F /  -22.8 °C 1006.7in /  34086.9hPa ESE 12.7mph /  20.4km/h 20.4mph /  32.8km/h 77% 0.0in /  0mm WeatherDisplay:10.37 W/m2 FEW
14:21 -5.7 °F /  -20.9 °C -9.1 °F /  -22.8 °C 1006.7in /  34086.9hPa SSE 11.7mph /  18.8km/h 22.2mph /  35.7km/h 77% 0.0in /  0mm WeatherDisplay:10.37 W/m2 FEW
14:28 -5.6 °F /  -20.9 °C -9.0 °F /  -22.8 °C 1006.7in /  34086.9hPa SE 12.6mph /  20.3km/h 22.2mph /  35.7km/h 77% 0.0in /  0mm WeatherDisplay:10.37 W/m2 FEW
14:34 -5.7 °F /  -20.9 °C -9.1 °F /  -22.8 °C 1006.3in /  34073.3hPa ESE 9.7mph /  15.6km/h 18.5mph /  29.8km/h 77% 0.0in /  0mm WeatherDisplay:10.37 W/m2 FEW
14:39 -5.6 °F /  -20.9 °C -9.2 °F /  -22.9 °C 1006.3in /  34073.3hPa South 12.6mph /  20.3km/h 27.8mph /  44.7km/h 76% 0.0in /  0mm WeatherDisplay:10.37 W/m2 FEW
14:46 -5.5 °F /  -20.8 °C -9.1 °F /  -22.8 °C 1006.3in /  34073.3hPa SE 14.5mph /  23.3km/h 32.2mph /  51.8km/h 76% 0.0in /  0mm WeatherDisplay:10.37 W/m2 FEW
14:51 -5.5 °F /  -20.8 °C -9.1 °F /  -22.8 °C 1006.0in /  34063.2hPa SE 6.8mph /  10.9km/h 16.1mph /  25.9km/h 76% 0.0in /  0mm WeatherDisplay:10.37 W/m2 FEW
14:57 -5.6 °F /  -20.9 °C -9.1 °F /  -22.8 °C 1006.3in /  34073.3hPa ENE 11.3mph /  18.2km/h 22.5mph /  36.2km/h 76% 0.0in /  0mm WeatherDisplay:10.37 W/m2 FEW
15:03 -5.5 °F /  -20.8 °C -9.2 °F /  -22.9 °C 1006.0in /  34063.2hPa South 8.0mph /  12.9km/h 16.1mph /  25.9km/h 75% 0.0in /  0mm WeatherDisplay:10.37 W/m2 FEW
15:08 -5.4 °F /  -20.8 °C -9.2 °F /  -22.9 °C 1006.0in /  34063.2hPa ESE 7.2mph /  11.6km/h 14.8mph /  23.8km/h 75% 0.0in /  0mm WeatherDisplay:10.37 W/m2 FEW
15:13 -5.5 °F /  -20.8 °C -9.2 °F /  -22.9 °C 1006.0in /  34063.2hPa East 8.5mph /  13.7km/h 14.8mph /  23.8km/h 75% 0.0in /  0mm WeatherDisplay:10.37 W/m2 FEW
15:18 -5.5 °F /  -20.8 °C -9.2 °F /  -22.9 °C 1006.0in /  34063.2hPa East 7.4mph /  11.9km/h 11.1mph /  17.9km/h 75% 0.0in /  0mm WeatherDisplay:10.37 W/m2 FEW
15:23 -5.5 °F /  -20.8 °C -9.2 °F /  -22.9 °C 1005.6in /  34049.6hPa East 7.2mph /  11.6km/h 11.1mph /  17.9km/h 75% 0.0in /  0mm WeatherDisplay:10.37 W/m2 FEW
15:35 -5.5 °F /  -20.8 °C -9.2 °F /  -22.9 °C 1005.6in /  34049.6hPa ESE 6.9mph /  11.1km/h 37.0mph /  59.5km/h 75% 0.0in /  0mm WeatherDisplay:10.37 W/m2 FEW
15:42 -5.5 °F /  -20.8 °C -9.1 °F /  -22.8 °C 1005.6in /  34049.6hPa SE 5.8mph /  9.3km/h 11.1mph /  17.9km/h 76% 0.0in /  0mm WeatherDisplay:10.37 W/m2 FEW
15:51 -5.7 °F /  -20.9 °C -9.2 °F /  -22.9 °C 1005.3in /  34039.5hPa SE 7.7mph /  12.4km/h 18.5mph /  29.8km/h 76% 0.0in /  0mm WeatherDisplay:10.37 W/m2 FEW
15:56 -5.7 °F /  -20.9 °C -9.2 °F /  -22.9 °C 1005.3in /  34039.5hPa SE 13.4mph /  21.6km/h 19.3mph /  31.1km/h 76% 0.0in /  0mm WeatherDisplay:10.37 W/m2 FEW
16:01 -5.7 °F /  -20.9 °C -9.2 °F /  -22.9 °C 1005.3in /  34039.5hPa ESE 10.0mph /  16.1km/h 18.5mph /  29.8km/h 76% 0.0in /  0mm WeatherDisplay:10.37 W/m2 FEW
16:08 -5.7 °F /  -20.9 °C -9.3 °F /  -22.9 °C 1005.3in /  34039.5hPa SSW 4.3mph /  6.9km/h 5.6mph /  9km/h 76% 0.0in /  0mm WeatherDisplay:10.37 W/m2 FEW
16:13 -5.7 °F /  -20.9 °C -9.1 °F /  -22.8 °C 1005.3in /  34039.5hPa SE 5.1mph /  8.2km/h 14.8mph /  23.8km/h 77% 0.0in /  0mm WeatherDisplay:10.37 W/m2 FEW
16:23 -5.7 °F /  -20.9 °C -9.1 °F /  -22.8 °C 1005.3in /  34039.5hPa South 8.8mph /  14.2km/h 18.5mph /  29.8km/h 77% 0.0in /  0mm WeatherDisplay:10.37 W/m2 FEW
16:28 -5.7 °F /  -20.9 °C -9.1 °F /  -22.8 °C 1005.0in /  34029.3hPa ESE 7.1mph /  11.4km/h 24.1mph /  38.8km/h 77% 0.0in /  0mm WeatherDisplay:10.37 W/m2 FEW
16:34 -5.7 °F /  -20.9 °C -9.1 °F /  -22.8 °C 1005.3in /  34039.5hPa SSE 6.8mph /  10.9km/h 14.8mph /  23.8km/h 77% 0.0in /  0mm WeatherDisplay:10.37 W/m2 FEW
16:43 -5.7 °F /  -20.9 °C -9.1 °F /  -22.8 °C 1005.3in /  34039.5hPa SSE 7.4mph /  11.9km/h 14.8mph /  23.8km/h 77% 0.0in /  0mm WeatherDisplay:10.37 W/m2 FEW
16:50 -5.7 °F /  -20.9 °C -9.1 °F /  -22.8 °C 1005.0in /  34029.3hPa SE 10.5mph /  16.9km/h 18.5mph /  29.8km/h 77% 0.0in /  0mm WeatherDisplay:10.37 W/m2 FEW
16:55 -5.6 °F /  -20.9 °C -9.0 °F /  -22.8 °C 1005.3in /  34039.5hPa East 6.8mph /  10.9km/h 18.5mph /  29.8km/h 77% 0.0in /  0mm WeatherDisplay:10.37 W/m2 FEW
17:00 -5.6 °F /  -20.9 °C -9.1 °F /  -22.8 °C 1005.0in /  34029.3hPa SE 15.0mph /  24.1km/h 25.9mph /  41.7km/h 76% 0.0in /  0mm WeatherDisplay:10.37 W/m2 FEW
17:05 -5.6 °F /  -20.9 °C -9.1 °F /  -22.8 °C 1005.0in /  34029.3hPa South 6.4mph /  10.3km/h 6.4mph /  10.3km/h 76% 0.0in /  0mm WeatherDisplay:10.37 W/m2 FEW
17:10 -5.7 °F /  -20.9 °C -9.2 °F /  -22.9 °C 1005.0in /  34029.3hPa ESE 4.8mph /  7.7km/h 14.8mph /  23.8km/h 76% 0.0in /  0mm WeatherDisplay:10.37 W/m2 FEW
17:15 -5.7 °F /  -20.9 °C -9.2 °F /  -22.9 °C 1005.0in /  34029.3hPa SSE 10.3mph /  16.6km/h 14.8mph /  23.8km/h 76% 0.0in /  0mm WeatherDisplay:10.37 W/m2 FEW
17:20 -5.7 °F /  -20.9 °C -9.2 °F /  -22.9 °C 1005.3in /  34039.5hPa South 12.6mph /  20.3km/h 20.4mph /  32.8km/h 76% 0.0in /  0mm WeatherDisplay:10.37 W/m2 FEW
17:25 -5.7 °F /  -20.9 °C -9.2 °F /  -22.9 °C 1005.0in /  34029.3hPa SE 5.6mph /  9km/h 7.4mph /  11.9km/h 76% 0.0in /  0mm WeatherDisplay:10.37 W/m2 FEW
17:34 -5.6 °F /  -20.9 °C -9.2 °F /  -22.9 °C 1005.0in /  34029.3hPa SE 13.7mph /  22km/h 22.5mph /  36.2km/h 76% 0.0in /  0mm WeatherDisplay:10.37 W/m2 FEW
17:39 -5.6 °F /  -20.9 °C -9.3 °F /  -22.9 °C 1005.0in /  34029.3hPa ESE 6.3mph /  10.1km/h 16.7mph /  26.9km/h 75% 0.0in /  0mm WeatherDisplay:10.37 W/m2 FEW
17:45 -5.6 °F /  -20.9 °C -9.3 °F /  -22.9 °C 1004.6in /  34015.8hPa ENE 7.6mph /  12.2km/h 31.5mph /  50.7km/h 75% 0.0in /  0mm WeatherDisplay:10.37 W/m2 FEW
17:50 -5.6 °F /  -20.9 °C -9.3 °F /  -22.9 °C 1005.0in /  34029.3hPa SE 15.4mph /  24.8km/h 16.7mph /  26.9km/h 75% 0.0in /  0mm WeatherDisplay:10.37 W/m2 FEW
17:55 -5.5 °F /  -20.8 °C -9.2 °F /  -22.9 °C 1004.6in /  34015.8hPa SE 10.0mph /  16.1km/h 18.5mph /  29.8km/h 75% 0.0in /  0mm WeatherDisplay:10.37 W/m2 FEW
18:01 -5.5 °F /  -20.8 °C -9.2 °F /  -22.9 °C 1004.6in /  34015.8hPa ENE 9.7mph /  15.6km/h 22.2mph /  35.7km/h 75% 0.0in /  0mm WeatherDisplay:10.37 W/m2 FEW
18:06 -5.6 °F /  -20.9 °C -9.3 °F /  -22.9 °C 1004.6in /  34015.8hPa ESE 0.5mph /  0.8km/h 11.1mph /  17.9km/h 75% 0.0in /  0mm WeatherDisplay:10.37 W/m2 FEW
18:17 -5.5 °F /  -20.8 °C -9.4 °F /  -23 °C 1004.6in /  34015.8hPa NE 17.5mph /  28.2km/h 29.6mph /  47.6km/h 74% 0.0in /  0mm WeatherDisplay:10.37 W/m2 FEW
18:24 -5.4 °F /  -20.8 °C -9.3 °F /  -22.9 °C 1004.3in /  34005.6hPa ENE 9.2mph /  14.8km/h 18.5mph /  29.8km/h 74% 0.0in /  0mm WeatherDisplay:10.37 W/m2 FEW
18:29 -5.4 °F /  -20.8 °C -9.3 °F /  -22.9 °C 1004.6in /  34015.8hPa ESE 8.8mph /  14.2km/h 27.8mph /  44.7km/h 74% 0.0in /  0mm WeatherDisplay:10.37 W/m2 FEW
18:36 -5.4 °F /  -20.8 °C -9.2 °F /  -22.9 °C 1004.3in /  34005.6hPa East 6.0mph /  9.7km/h 19.3mph /  31.1km/h 75% 0.0in /  0mm WeatherDisplay:10.37 W/m2 FEW
18:52 -5.4 °F /  -20.8 °C -9.3 °F /  -22.9 °C 1004.3in /  34005.6hPa SE 7.4mph /  11.9km/h 20.4mph /  32.8km/h 74% 0.0in /  0mm WeatherDisplay:10.37 W/m2 FEW
19:03 -5.5 °F /  -20.8 °C -9.2 °F /  -22.9 °C 1004.3in /  34005.6hPa ESE 9.2mph /  14.8km/h 16.7mph /  26.9km/h 75% 0.0in /  0mm WeatherDisplay:10.37 W/m2 FEW
19:10 -5.5 °F /  -20.8 °C -9.2 °F /  -22.9 °C 1004.3in /  34005.6hPa South 7.4mph /  11.9km/h 22.2mph /  35.7km/h 75% 0.0in /  0mm WeatherDisplay:10.37 W/m2 FEW
19:18 -5.4 °F /  -20.8 °C -9.2 °F /  -22.9 °C 1003.9in /  33992.1hPa WSW 6.0mph /  9.7km/h 14.8mph /  23.8km/h 75% 0.0in /  0mm WeatherDisplay:10.37 W/m2 FEW
19:28 -5.4 °F /  -20.8 °C -9.2 °F /  -22.9 °C 1003.9in /  33992.1hPa SE 9.7mph /  15.6km/h 24.1mph /  38.8km/h 75% 0.0in /  0mm WeatherDisplay:10.37 W/m2 FEW
19:33 -5.4 °F /  -20.8 °C -9.2 °F /  -22.9 °C 1003.9in /  33992.1hPa East 15.6mph /  25.1km/h 27.8mph /  44.7km/h 75% 0.0in /  0mm WeatherDisplay:10.37 W/m2 FEW
19:40 -5.4 °F /  -20.8 °C -9.3 °F /  -22.9 °C 1003.9in /  33992.1hPa South 9.0mph /  14.5km/h 16.7mph /  26.9km/h 74% 0.0in /  0mm WeatherDisplay:10.37 W/m2 FEW
19:45 -5.4 °F /  -20.8 °C -9.3 °F /  -22.9 °C 1003.9in /  33992.1hPa ESE 6.8mph /  10.9km/h 13.0mph /  20.9km/h 74% 0.0in /  0mm WeatherDisplay:10.37 W/m2 FEW
19:57 -5.4 °F /  -20.8 °C -9.3 °F /  -22.9 °C 1003.9in /  33992.1hPa SE 13.7mph /  22km/h 22.2mph /  35.7km/h 74% 0.0in /  0mm WeatherDisplay:10.37 W/m2 FEW
20:03 -5.4 °F /  -20.8 °C -9.3 °F /  -22.9 °C 1003.9in /  33992.1hPa South 9.0mph /  14.5km/h 18.5mph /  29.8km/h 74% 0.0in /  0mm WeatherDisplay:10.37 W/m2 FEW
20:08 -5.4 °F /  -20.8 °C -9.3 °F /  -22.9 °C 1003.9in /  33992.1hPa ESE 11.6mph /  18.7km/h 14.5mph /  23.3km/h 74% 0.0in /  0mm WeatherDisplay:10.37 W/m2 FEW
20:17 -5.4 °F /  -20.8 °C -9.3 °F /  -22.9 °C 1003.9in /  33992.1hPa SSE 6.1mph /  9.8km/h 9.3mph /  15km/h 74% 0.0in /  0mm WeatherDisplay:10.37 W/m2 FEW
20:22 -5.4 °F /  -20.8 °C -9.3 °F /  -22.9 °C 1003.9in /  33992.1hPa ENE 8.2mph /  13.2km/h 20.4mph /  32.8km/h 74% 0.0in /  0mm WeatherDisplay:10.37 W/m2 FEW
20:28 -5.4 °F /  -20.8 °C -9.3 °F /  -22.9 °C 1003.9in /  33992.1hPa ESE 5.6mph /  9km/h 18.5mph /  29.8km/h 74% 0.0in /  0mm WeatherDisplay:10.37 W/m2 FEW
20:34 -5.4 °F /  -20.8 °C -9.3 °F /  -22.9 °C 1003.9in /  33992.1hPa East 9.3mph /  15km/h 14.8mph /  23.8km/h 74% 0.0in /  0mm WeatherDisplay:10.37 W/m2 FEW
20:44 -5.4 °F /  -20.8 °C -9.3 °F /  -22.9 °C 1003.6in /  33981.9hPa East 5.1mph /  8.2km/h 11.1mph /  17.9km/h 74% 0.0in /  0mm WeatherDisplay:10.37 W/m2 FEW
20:50 -5.4 °F /  -20.8 °C -9.3 °F /  -22.9 °C 1003.9in /  33992.1hPa East 4.8mph /  7.7km/h 14.8mph /  23.8km/h 74% 0.0in /  0mm WeatherDisplay:10.37 W/m2 FEW
20:55 -5.4 °F /  -20.8 °C -9.3 °F /  -22.9 °C 1003.9in /  33992.1hPa ESE 8.5mph /  13.7km/h 18.5mph /  29.8km/h 74% 0.0in /  0mm WeatherDisplay:10.37 W/m2 FEW
21:03 -5.4 °F /  -20.8 °C -9.3 °F /  -22.9 °C 1003.6in /  33981.9hPa South 7.6mph /  12.2km/h 25.9mph /  41.7km/h 74% 0.0in /  0mm WeatherDisplay:10.37 W/m2 FEW
21:08 -5.4 °F /  -20.8 °C -9.3 °F /  -22.9 °C 1003.6in /  33981.9hPa South 5.0mph /  8km/h 14.8mph /  23.8km/h 74% 0.0in /  0mm WeatherDisplay:10.37 W/m2 FEW
21:13 -5.4 °F /  -20.8 °C -9.4 °F /  -23 °C 1003.6in /  33981.9hPa SW 7.2mph /  11.6km/h 18.5mph /  29.8km/h 73% 0.0in /  0mm WeatherDisplay:10.37 W/m2 FEW
21:21 -5.4 °F /  -20.8 °C -9.4 °F /  -23 °C 1003.6in /  33981.9hPa NE 4.3mph /  6.9km/h 14.8mph /  23.8km/h 73% 0.0in /  0mm WeatherDisplay:10.37 W/m2 FEW
21:26 -5.4 °F /  -20.8 °C -9.4 °F /  -23 °C 1003.6in /  33981.9hPa SE 5.6mph /  9km/h 9.3mph /  15km/h 73% 0.0in /  0mm WeatherDisplay:10.37 W/m2 FEW
21:34 -5.4 °F /  -20.8 °C -9.4 °F /  -23 °C 1003.6in /  33981.9hPa East 16.1mph /  25.9km/h 24.1mph /  38.8km/h 73% 0.0in /  0mm WeatherDisplay:10.37 W/m2 FEW
21:44 -5.3 °F /  -20.7 °C -9.6 °F /  -23.1 °C 1003.3in /  33971.7hPa SE 12.2mph /  19.6km/h 20.4mph /  32.8km/h 72% 0.0in /  0mm WeatherDisplay:10.37 W/m2 FEW
21:49 -5.2 °F /  -20.7 °C -9.5 °F /  -23.1 °C 1003.3in /  33971.7hPa SE 8.8mph /  14.2km/h 16.7mph /  26.9km/h 72% 0.0in /  0mm WeatherDisplay:10.37 W/m2 FEW
21:56 -5.2 °F /  -20.7 °C -9.5 °F /  -23.1 °C 1003.3in /  33971.7hPa South 7.6mph /  12.2km/h 11.1mph /  17.9km/h 72% 0.0in /  0mm WeatherDisplay:10.37 W/m2 FEW
22:05 -5.2 °F /  -20.7 °C -9.5 °F /  -23.1 °C 1003.3in /  33971.7hPa SSE 9.8mph /  15.8km/h 24.1mph /  38.8km/h 72% 0.0in /  0mm WeatherDisplay:10.37 W/m2 FEW
22:10 -5.2 °F /  -20.7 °C -9.5 °F /  -23.1 °C 1003.3in /  33971.7hPa SSW 6.4mph /  10.3km/h 13.0mph /  20.9km/h 72% 0.0in /  0mm WeatherDisplay:10.37 W/m2 FEW
22:18 -5.3 °F /  -20.7 °C -9.6 °F /  -23.1 °C 1003.3in /  33971.7hPa ESE 8.4mph /  13.5km/h 22.2mph /  35.7km/h 72% 0.0in /  0mm WeatherDisplay:10.37 W/m2 FEW
22:29 -5.3 °F /  -20.7 °C -9.4 °F /  -23 °C 1002.9in /  33958.2hPa East 10.3mph /  16.6km/h 18.5mph /  29.8km/h 73% 0.0in /  0mm WeatherDisplay:10.37 W/m2 FEW
22:36 -5.3 °F /  -20.7 °C -9.2 °F /  -22.9 °C 1002.9in /  33958.2hPa SE 6.9mph /  11.1km/h 18.5mph /  29.8km/h 74% 0.0in /  0mm WeatherDisplay:10.37 W/m2 FEW
22:41 -5.3 °F /  -20.7 °C -9.2 °F /  -22.9 °C 1002.9in /  33958.2hPa ENE 7.9mph /  12.7km/h 18.5mph /  29.8km/h 74% 0.0in /  0mm WeatherDisplay:10.37 W/m2 FEW
22:46 -5.3 °F /  -20.7 °C -9.2 °F /  -22.9 °C 1002.9in /  33958.2hPa ESE 5.5mph /  8.9km/h 11.1mph /  17.9km/h 74% 0.0in /  0mm WeatherDisplay:10.37 W/m2 FEW
22:51 -5.4 °F /  -20.8 °C -9.3 °F /  -22.9 °C 1002.9in /  33958.2hPa ENE 10.8mph /  17.4km/h 18.5mph /  29.8km/h 74% 0.0in /  0mm WeatherDisplay:10.37 W/m2 FEW
23:05 -5.4 °F /  -20.8 °C -9.4 °F /  -23 °C 1002.9in /  33958.2hPa SE 7.6mph /  12.2km/h 13.0mph /  20.9km/h 73% 0.0in /  0mm WeatherDisplay:10.37 W/m2 FEW
23:17 -5.5 °F /  -20.8 °C -9.4 °F /  -23 °C 1002.9in /  33958.2hPa ENE 6.0mph /  9.7km/h 20.4mph /  32.8km/h 74% 0.0in /  0mm WeatherDisplay:10.37 W/m2 FEW
23:18 -5.5 °F /  -20.8 °C -9.4 °F /  -23 °C 1002.9in /  33958.2hPa SE 10.5mph /  16.9km/h 18.5mph /  29.8km/h 74% 0.0in /  0mm WeatherDisplay:10.37 W/m2 FEW
23:24 -5.6 °F /  -20.9 °C -9.4 °F /  -23 °C 1002.9in /  33958.2hPa ESE 9.0mph /  14.5km/h 14.8mph /  23.8km/h 74% 0.0in /  0mm WeatherDisplay:10.37 W/m2 FEW
23:29 -5.6 °F /  -20.9 °C -9.5 °F /  -23.1 °C 1002.6in /  33948hPa NE 9.7mph /  15.6km/h 14.8mph /  23.8km/h 74% 0.0in /  0mm WeatherDisplay:10.37 W/m2 FEW
23:36 -5.7 °F /  -20.9 °C -9.6 °F /  -23.1 °C 1002.6in /  33948hPa East 13.7mph /  22km/h 27.8mph /  44.7km/h 74% 0.0in /  0mm WeatherDisplay:10.37 W/m2 FEW
23:43 -5.8 °F /  -21 °C -9.7 °F /  -23.2 °C 1002.6in /  33948hPa South 9.7mph /  15.6km/h 18.5mph /  29.8km/h 74% 0.0in /  0mm WeatherDisplay:10.37 W/m2 FEW
23:48 -5.8 °F /  -21 °C -9.7 °F /  -23.2 °C 1002.6in /  33948hPa NE 9.2mph /  14.8km/h 18.5mph /  29.8km/h 74% 0.0in /  0mm WeatherDisplay:10.37 W/m2 FEW
23:53 -5.8 °F /  -21 °C -9.7 °F /  -23.2 °C 1002.6in /  33948hPa ENE 10.5mph /  16.9km/h 16.7mph /  26.9km/h 74% 0.0in /  0mm WeatherDisplay:10.37 W/m2 FEW
23:59 -5.9 °F /  -21.1 °C -9.9 °F /  -23.3 °C 1002.3in /  33937.9hPa ESE 12.9mph /  20.8km/h 18.5mph /  29.8km/h 73% 0.0in /  0mm WeatherDisplay:10.37 W/m2 FEW
Tuulensuunkaari, Veikkola, Suomi
Compliments of Weather Underground - 2.25 mb